createdAt,value
2023-05-19T00:00:21.468Z,101106.00
2023-05-19T00:03:24.725Z,101114.81
2023-05-19T00:06:31.779Z,101116.06
2023-05-19T00:09:34.820Z,101113.72
2023-05-19T00:12:37.734Z,101119.56
2023-05-19T00:15:40.530Z,101112.94
2023-05-19T00:18:43.527Z,101107.34
2023-05-19T00:21:46.076Z,101095.69
2023-05-19T00:24:49.235Z,101104.41
2023-05-19T00:27:51.987Z,101111.34
2023-05-19T00:30:55.055Z,101110.00
2023-05-19T00:33:58.106Z,101108.13
2023-05-19T00:37:01.106Z,101118.75
2023-05-19T00:40:06.183Z,101118.25
2023-05-19T00:43:14.062Z,101115.03
2023-05-19T00:46:16.599Z,101121.69
2023-05-19T00:49:19.487Z,101116.84
2023-05-19T00:52:22.097Z,101113.72
2023-05-19T00:55:31.478Z,101118.25
2023-05-19T00:58:36.233Z,101117.72
2023-05-19T01:01:39.450Z,101120.13
2023-05-19T01:04:44.246Z,101127.84
2023-05-19T01:07:47.518Z,101127.84
2023-05-19T01:10:50.261Z,101130.22
2023-05-19T01:13:52.993Z,101131.25
2023-05-19T01:17:05.643Z,101124.09
2023-05-19T01:20:25.957Z,101125.16
2023-05-19T01:23:50.971Z,101115.59
2023-05-19T01:27:15.175Z,101108.16
2023-05-19T01:30:40.717Z,101107.91
2023-05-19T01:33:43.959Z,101109.25
2023-05-19T01:36:50.106Z,101107.03
2023-05-19T01:39:53.419Z,101102.53
2023-05-19T01:42:58.571Z,101101.19
2023-05-19T01:46:02.507Z,101096.44
2023-05-19T01:49:06.439Z,101098.28
2023-05-19T01:52:09.205Z,101089.81
2023-05-19T01:55:11.676Z,101085.03
2023-05-19T01:58:47.625Z,101091.94
2023-05-19T02:01:54.137Z,101096.94
2023-05-19T02:05:05.498Z,101091.84
2023-05-19T02:08:29.711Z,101093.13
2023-05-19T02:11:38.018Z,101100.66
2023-05-19T02:14:49.888Z,101092.31
2023-05-19T02:17:55.670Z,101100.03
2023-05-19T02:20:58.413Z,101098.72
2023-05-19T02:24:01.022Z,101099.53
2023-05-19T02:27:03.816Z,101091.91
2023-05-19T02:30:07.316Z,101100.19
2023-05-19T02:33:11.511Z,101099.69
2023-05-19T02:36:14.816Z,101091.78
2023-05-19T02:39:17.894Z,101093.41
2023-05-19T02:42:20.873Z,101100.88
2023-05-19T02:45:24.334Z,101101.13
2023-05-19T02:48:27.276Z,101112.28
2023-05-19T02:51:29.789Z,101107.25
2023-05-19T02:54:33.767Z,101100.66
2023-05-19T02:57:36.501Z,101119.75
2023-05-19T03:00:39.431Z,101112.03
2023-05-19T03:03:42.479Z,101112.94
2023-05-19T03:06:45.421Z,101115.59
2023-05-19T03:09:48.220Z,101114.19
2023-05-19T03:12:50.920Z,101111.00
2023-05-19T03:15:53.560Z,101117.91
2023-05-19T03:18:56.385Z,101120.00
2023-05-19T03:21:59.354Z,101123.41
2023-05-19T03:25:02.487Z,101123.75
2023-05-19T03:28:05.613Z,101124.91
2023-05-19T03:31:08.409Z,101120.13
2023-05-19T03:34:14.304Z,101115.88
2023-05-19T03:37:16.943Z,101115.69
2023-05-19T03:40:19.987Z,101117.28
2023-05-19T03:43:24.005Z,101112.97
2023-05-19T03:46:33.937Z,101108.13
2023-05-19T03:49:53.489Z,101111.53
2023-05-19T03:53:02.143Z,101112.50
2023-05-19T03:56:08.969Z,101116.44
2023-05-19T03:59:12.405Z,101119.66
2023-05-19T04:02:16.499Z,101130.72
2023-05-19T04:05:19.784Z,101129.09
2023-05-19T04:08:22.230Z,101127.75
2023-05-19T04:11:24.974Z,101125.31
2023-05-19T04:14:27.509Z,101123.44
2023-05-19T04:17:30.215Z,101132.81
2023-05-19T04:20:33.027Z,101134.56
2023-05-19T04:23:35.569Z,101126.78
2023-05-19T04:26:38.544Z,101128.38
2023-05-19T04:29:41.985Z,101130.25
2023-05-19T04:32:44.841Z,101137.53
2023-05-19T04:35:47.658Z,101125.94
2023-05-19T04:38:54.826Z,101121.81
2023-05-19T04:42:00.152Z,101121.34
2023-05-19T04:45:05.428Z,101123.88
2023-05-19T04:48:09.538Z,101118.34
2023-05-19T04:51:14.331Z,101108.81
2023-05-19T04:54:17.355Z,101120.00
2023-05-19T04:57:20.109Z,101120.78
2023-05-19T05:00:22.806Z,101123.38
2023-05-19T05:03:31.075Z,101124.94
2023-05-19T05:06:34.130Z,101128.47
2023-05-19T05:09:36.761Z,101125.41
2023-05-19T05:12:39.659Z,101116.28
2023-05-19T05:15:42.340Z,101130.22
2023-05-19T05:18:47.009Z,101128.22
2023-05-19T05:21:50.087Z,101130.09
2023-05-19T05:24:52.901Z,101120.94
2023-05-19T05:27:55.863Z,101127.44
2023-05-19T05:30:59.302Z,101126.44
2023-05-19T05:34:02.056Z,101118.00
2023-05-19T05:37:07.462Z,101123.03
2023-05-19T05:40:11.742Z,101117.84
2023-05-19T05:43:15.066Z,101122.00
2023-05-19T05:46:23.894Z,101127.16
2023-05-19T05:49:26.777Z,101117.28
2023-05-19T05:52:32.475Z,101120.47
2023-05-19T05:55:36.503Z,101130.13
2023-05-19T05:58:40.872Z,101123.97
2023-05-19T06:01:44.007Z,101120.34
2023-05-19T06:04:47.231Z,101120.00
2023-05-19T06:07:49.992Z,101126.19
2023-05-19T06:10:58.770Z,101124.28
2023-05-19T06:14:02.516Z,101122.34
2023-05-19T06:17:25.511Z,101118.56
2023-05-19T06:20:28.209Z,101129.63
2023-05-19T06:23:31.521Z,101136.97
2023-05-19T06:26:34.211Z,101138.84
2023-05-19T06:29:36.944Z,101135.69
2023-05-19T06:32:42.289Z,101139.50
2023-05-19T06:35:44.866Z,101145.78
2023-05-19T06:38:47.499Z,101153.84
2023-05-19T06:41:50.032Z,101151.94
2023-05-19T06:45:12.790Z,101149.03
2023-05-19T06:48:15.648Z,101154.53
2023-05-19T06:51:21.846Z,101156.56
2023-05-19T06:54:28.797Z,101151.41
2023-05-19T06:57:33.127Z,101151.78
2023-05-19T07:00:37.558Z,101160.94
2023-05-19T07:03:41.900Z,101151.25
2023-05-19T07:06:46.492Z,101152.78
2023-05-19T07:09:49.351Z,101152.97
2023-05-19T07:12:51.940Z,101154.19
2023-05-19T07:15:57.916Z,101149.69
2023-05-19T07:19:03.222Z,101143.66
2023-05-19T07:22:05.885Z,101145.00
2023-05-19T07:25:08.878Z,101140.41
2023-05-19T07:28:11.552Z,101142.75
2023-05-19T07:31:14.152Z,101147.91
2023-05-19T07:34:17.952Z,101137.59
2023-05-19T07:37:20.529Z,101143.75
2023-05-19T07:40:23.243Z,101142.16
2023-05-19T07:43:25.769Z,101149.97
2023-05-19T07:46:28.496Z,101145.34
2023-05-19T07:49:31.156Z,101148.56
2023-05-19T07:52:33.770Z,101152.53
2023-05-19T07:55:36.305Z,101145.53
2023-05-19T07:58:38.865Z,101151.03
2023-05-19T08:01:41.422Z,101156.69
2023-05-19T08:04:44.046Z,101155.88
2023-05-19T08:07:47.179Z,101148.69
2023-05-19T08:10:49.923Z,101144.97
2023-05-19T08:13:52.424Z,101143.84
2023-05-19T08:16:55.099Z,101140.09
2023-05-19T08:19:57.568Z,101139.31
2023-05-19T08:23:00.362Z,101137.31
2023-05-19T08:26:03.150Z,101146.72
2023-05-19T08:29:05.699Z,101139.19
2023-05-19T08:32:09.795Z,101143.63
2023-05-19T08:35:14.234Z,101138.63
2023-05-19T08:38:16.685Z,101137.03
2023-05-19T08:41:19.886Z,101135.09
2023-05-19T08:44:45.665Z,101133.47
2023-05-19T08:47:51.000Z,101135.50
2023-05-19T08:51:09.488Z,101134.94
2023-05-19T08:54:16.113Z,101138.13
2023-05-19T08:57:19.170Z,101132.75
2023-05-19T09:00:22.745Z,101137.75
2023-05-19T09:03:26.737Z,101136.13
2023-05-19T09:06:33.413Z,101137.69
2023-05-19T09:09:36.023Z,101143.69
2023-05-19T09:12:38.590Z,101140.53
2023-05-19T09:15:43.021Z,101137.84
2023-05-19T09:18:57.201Z,101140.16
2023-05-19T09:22:01.303Z,101135.34
2023-05-19T09:25:04.044Z,101127.94
2023-05-19T09:28:08.874Z,101126.22
2023-05-19T09:31:11.690Z,101138.59
2023-05-19T09:34:14.231Z,101124.03
2023-05-19T09:37:16.915Z,101125.56
2023-05-19T09:40:19.913Z,101123.88
2023-05-19T09:43:22.876Z,101121.91
2023-05-19T09:46:29.866Z,101117.94
2023-05-19T09:49:33.076Z,101116.97
2023-05-19T09:52:39.501Z,101106.41
2023-05-19T09:55:43.001Z,101107.53
2023-05-19T09:58:52.566Z,101102.75
2023-05-19T10:01:57.000Z,101106.84
2023-05-19T10:05:01.300Z,101103.31
2023-05-19T10:08:07.278Z,101106.00
2023-05-19T10:11:12.090Z,101107.44
2023-05-19T10:14:15.936Z,101094.63
2023-05-19T10:17:18.874Z,101090.44
2023-05-19T10:20:21.672Z,101093.16
2023-05-19T10:23:24.258Z,101085.00
2023-05-19T10:26:28.437Z,101077.94
2023-05-19T10:29:35.398Z,101083.28
2023-05-19T10:32:40.358Z,101079.25
2023-05-19T10:36:09.809Z,101077.53
2023-05-19T10:39:24.981Z,101066.75
2023-05-19T10:42:57.318Z,101066.56
2023-05-19T10:46:00.890Z,101070.00
2023-05-19T10:49:03.487Z,101069.69
2023-05-19T10:52:21.604Z,101066.75
2023-05-19T10:55:50.019Z,101064.66
2023-05-19T10:58:53.040Z,101061.31
2023-05-19T11:01:55.725Z,101054.75
2023-05-19T11:05:09.817Z,101053.53
2023-05-19T11:08:13.011Z,101060.88
2023-05-19T11:11:16.902Z,101051.00
2023-05-19T11:14:26.675Z,101049.94
2023-05-19T11:17:29.581Z,101043.03
2023-05-19T11:20:39.670Z,101047.56
2023-05-19T11:23:46.711Z,101042.72
2023-05-19T11:26:49.471Z,101036.88
2023-05-19T11:29:53.014Z,101044.19
2023-05-19T11:32:56.725Z,101036.81
2023-05-19T11:35:59.557Z,101034.13
2023-05-19T11:39:02.732Z,101025.13
2023-05-19T11:42:06.917Z,101016.59
2023-05-19T11:45:10.526Z,101019.16
2023-05-19T11:48:13.916Z,101014.00
2023-05-19T11:51:17.315Z,101013.19
2023-05-19T11:54:20.146Z,101007.09
2023-05-19T11:57:22.732Z,101007.09
2023-05-19T12:00:30.322Z,101005.53
2023-05-19T12:03:33.186Z,101000.75
2023-05-19T12:06:37.120Z,100997.34
2023-05-19T12:09:40.347Z,100992.81
2023-05-19T12:12:45.255Z,100987.81
2023-05-19T12:15:47.783Z,100993.16
2023-05-19T12:18:50.631Z,100987.81
2023-05-19T12:21:54.030Z,100992.69
2023-05-19T12:24:56.942Z,100983.31
2023-05-19T12:28:05.734Z,100988.03
2023-05-19T12:31:08.353Z,100985.69
2023-05-19T12:34:13.225Z,100982.25
2023-05-19T12:37:15.820Z,100981.28
2023-05-19T12:40:18.451Z,100972.38
2023-05-19T12:43:22.928Z,100972.81
2023-05-19T12:46:25.515Z,100983.56
2023-05-19T12:49:28.137Z,100970.84
2023-05-19T12:52:35.516Z,100967.81
2023-05-19T12:55:43.536Z,100970.66
2023-05-19T12:58:46.209Z,100966.41
2023-05-19T13:01:58.159Z,100976.63
2023-05-19T13:05:00.795Z,100967.47
2023-05-19T13:08:08.894Z,100960.84
2023-05-19T13:11:11.450Z,100955.47
2023-05-19T13:14:15.824Z,100954.19
2023-05-19T13:17:19.469Z,100942.00
2023-05-19T13:20:22.486Z,100941.75
2023-05-19T13:23:26.306Z,100943.22
2023-05-19T13:26:28.877Z,100943.72
2023-05-19T13:29:31.403Z,100931.44
2023-05-19T13:32:34.270Z,100929.06
2023-05-19T13:35:39.840Z,100918.88
2023-05-19T13:38:42.695Z,100922.22
2023-05-19T13:41:45.271Z,100914.16
2023-05-19T13:44:47.950Z,100917.19
2023-05-19T13:47:50.486Z,100910.53
2023-05-19T13:50:55.590Z,100916.81
2023-05-19T13:53:58.115Z,100909.66
2023-05-19T13:57:01.350Z,100911.91
2023-05-19T14:00:05.856Z,100899.66
2023-05-19T14:03:16.298Z,100900.47
2023-05-19T14:06:18.884Z,100902.72
2023-05-19T14:09:21.754Z,100900.63
2023-05-19T14:12:34.779Z,100907.63
2023-05-19T14:15:42.417Z,100891.19
2023-05-19T14:18:45.048Z,100893.69
2023-05-19T14:21:47.959Z,100901.34
2023-05-19T14:24:50.463Z,100899.22
2023-05-19T14:27:53.156Z,100897.91
2023-05-19T14:30:55.739Z,100902.88
2023-05-19T14:33:58.330Z,100900.66
2023-05-19T14:37:02.204Z,100907.88
2023-05-19T14:40:05.170Z,100897.47
2023-05-19T14:43:07.988Z,100894.84
2023-05-19T14:46:10.867Z,100901.78
2023-05-19T14:49:13.400Z,100898.28
2023-05-19T14:52:16.104Z,100901.16
2023-05-19T14:55:18.572Z,100895.88
2023-05-19T15:01:29.211Z,100894.16
2023-05-19T15:04:32.111Z,100893.38
2023-05-19T15:07:34.651Z,100891.63
2023-05-19T15:10:37.246Z,100892.72
2023-05-19T15:13:39.887Z,100891.84
2023-05-19T15:16:42.692Z,100896.47
2023-05-19T15:19:45.272Z,100889.69
2023-05-19T15:22:48.828Z,100900.72
2023-05-19T15:25:53.060Z,100896.25
2023-05-19T15:28:55.851Z,100899.88
2023-05-19T15:31:58.506Z,100893.19
2023-05-19T15:35:01.253Z,100899.38
2023-05-19T15:38:06.361Z,100897.56
2023-05-19T15:41:09.354Z,100895.75
2023-05-19T15:44:12.051Z,100901.56
2023-05-19T15:47:14.521Z,100900.63
2023-05-19T15:50:17.471Z,100897.41
2023-05-19T15:53:20.367Z,100891.97
2023-05-19T15:56:22.925Z,100885.78
2023-05-19T15:59:25.747Z,100881.16
2023-05-19T16:02:28.439Z,100883.09
2023-05-19T16:05:30.930Z,100882.41
2023-05-19T16:08:33.690Z,100884.34
2023-05-19T16:11:36.225Z,100878.44
2023-05-19T16:14:38.823Z,100876.41
2023-05-19T16:17:41.436Z,100872.47
2023-05-19T16:20:44.211Z,100877.63
2023-05-19T16:23:46.918Z,100879.56
2023-05-19T16:26:49.609Z,100879.09
2023-05-19T16:29:52.129Z,100873.22
2023-05-19T16:32:54.874Z,100877.63
2023-05-19T16:35:58.692Z,100882.38
2023-05-19T16:39:01.457Z,100883.53
2023-05-19T16:42:04.761Z,100887.03
2023-05-19T16:45:08.202Z,100880.81
2023-05-19T16:48:11.361Z,100881.97
2023-05-19T16:51:14.082Z,100891.28
2023-05-19T16:54:16.885Z,100900.19
2023-05-19T16:57:19.424Z,100904.47
2023-05-19T17:00:22.220Z,100900.03
2023-05-19T17:03:24.899Z,100911.31
2023-05-19T17:06:27.850Z,100914.00
2023-05-19T17:09:30.494Z,100905.78
2023-05-19T17:12:33.087Z,100909.19
2023-05-19T17:15:35.660Z,100923.03
2023-05-19T17:18:38.366Z,100920.19
2023-05-19T17:21:40.980Z,100922.72
2023-05-19T17:24:43.802Z,100932.84
2023-05-19T17:27:46.358Z,100940.31
2023-05-19T17:30:48.981Z,100943.34
2023-05-19T17:33:51.457Z,100939.63
2023-05-19T17:36:54.158Z,100946.06
2023-05-19T17:39:56.822Z,100937.72
2023-05-19T17:42:59.314Z,100946.91
2023-05-19T17:46:01.989Z,100947.97
2023-05-19T17:49:04.935Z,100947.91
2023-05-19T17:52:08.197Z,100950.66
2023-05-19T17:55:12.047Z,100950.38
2023-05-19T17:58:14.724Z,100946.81
2023-05-19T18:01:18.030Z,100941.34
2023-05-19T18:04:21.114Z,100947.31
2023-05-19T18:07:26.397Z,100949.22
2023-05-19T18:10:29.953Z,100949.25
2023-05-19T18:13:32.598Z,100951.28
2023-05-19T18:16:35.261Z,100958.13
2023-05-19T18:19:37.833Z,100953.97
2023-05-19T18:22:40.790Z,100957.19
2023-05-19T18:25:49.954Z,100951.13
2023-05-19T18:28:52.475Z,100956.28
2023-05-19T18:31:55.351Z,100961.53
2023-05-19T18:34:57.837Z,100963.06
2023-05-19T18:38:00.972Z,100957.97
2023-05-19T18:41:03.448Z,100962.50
2023-05-19T18:44:08.193Z,100962.78
2023-05-19T18:47:11.055Z,100969.13
2023-05-19T18:50:14.480Z,100976.09
2023-05-19T18:53:17.210Z,100973.50
2023-05-19T18:56:23.960Z,100976.78
2023-05-19T18:59:26.446Z,100971.53
2023-05-19T19:02:29.195Z,100986.31
2023-05-19T19:05:31.800Z,100974.97
2023-05-19T19:08:34.460Z,100987.56
2023-05-19T19:11:36.965Z,100992.72
2023-05-19T19:14:39.611Z,100999.66
2023-05-19T19:17:42.364Z,100996.94
2023-05-19T19:20:45.201Z,101001.81
2023-05-19T19:23:47.743Z,101006.63
2023-05-19T19:26:50.888Z,101005.25
2023-05-19T19:29:54.050Z,101000.94
2023-05-19T19:32:57.126Z,101009.72
2023-05-19T19:35:59.680Z,101005.47
2023-05-19T19:39:02.405Z,101000.84
2023-05-19T19:42:05.194Z,101004.50
2023-05-19T19:45:08.298Z,100995.09
2023-05-19T19:48:12.185Z,101000.16
2023-05-19T19:51:14.874Z,101007.69
2023-05-19T19:54:18.442Z,101010.69
2023-05-19T19:57:21.200Z,101008.88
2023-05-19T20:00:23.775Z,101012.31
2023-05-19T20:03:27.277Z,101014.47
2023-05-19T20:06:29.824Z,101005.91
2023-05-19T20:09:32.700Z,101012.09
2023-05-19T20:12:35.329Z,101002.47
2023-05-19T20:15:39.159Z,101007.84
2023-05-19T20:18:41.995Z,101005.94
2023-05-19T20:21:44.632Z,101003.84
2023-05-19T20:24:47.313Z,101004.75
2023-05-19T20:27:50.387Z,101013.75
2023-05-19T20:30:53.018Z,101020.94
2023-05-19T20:33:55.880Z,101008.72
2023-05-19T20:36:58.347Z,101013.31
2023-05-19T20:40:01.109Z,101012.59
2023-05-19T20:43:03.713Z,101016.06
2023-05-19T20:46:06.487Z,101018.66
2023-05-19T20:49:09.111Z,101013.00
2023-05-19T20:52:11.890Z,101009.00
2023-05-19T20:55:14.654Z,101017.75
2023-05-19T20:58:17.410Z,101027.22
2023-05-19T21:01:19.930Z,101016.94
2023-05-19T21:04:22.929Z,101014.31
2023-05-19T21:07:25.540Z,101019.03
2023-05-19T21:10:28.389Z,101008.03
2023-05-19T21:13:31.572Z,101008.31
2023-05-19T21:16:34.450Z,101020.75
2023-05-19T21:19:37.397Z,101021.59
2023-05-19T21:22:41.132Z,101031.19
2023-05-19T21:25:45.379Z,101029.81
2023-05-19T21:28:48.676Z,101022.19
2023-05-19T21:31:52.624Z,101013.31
2023-05-19T21:34:55.794Z,101020.09
2023-05-19T21:38:00.580Z,101013.31
2023-05-19T21:41:06.738Z,101018.38
2023-05-19T21:44:09.162Z,101019.56
2023-05-19T21:47:11.769Z,101027.50
2023-05-19T21:50:17.420Z,101032.00
2023-05-19T21:53:20.479Z,101030.19
2023-05-19T21:56:22.973Z,101032.09
2023-05-19T21:59:26.538Z,101029.75
2023-05-19T22:02:29.016Z,101032.09
2023-05-19T22:05:32.506Z,101031.69
2023-05-19T22:08:34.992Z,101026.16
2023-05-19T22:11:37.910Z,101026.34
2023-05-19T22:14:41.267Z,101035.53
2023-05-19T22:17:44.064Z,101032.91
2023-05-19T22:20:46.886Z,101027.84
2023-05-19T22:23:49.595Z,101026.13
2023-05-19T22:26:52.246Z,101029.31
2023-05-19T22:29:55.114Z,101017.03
2023-05-19T22:32:57.861Z,101016.28
2023-05-19T22:36:00.538Z,101023.38
2023-05-19T22:39:03.130Z,101028.91
2023-05-19T22:42:06.213Z,101022.28
2023-05-19T22:45:09.380Z,101036.16
2023-05-19T22:48:12.056Z,101029.38
2023-05-19T22:51:14.697Z,101039.00
2023-05-19T22:54:17.424Z,101034.72
2023-05-19T22:57:20.207Z,101029.69
2023-05-19T23:00:22.895Z,101036.78
2023-05-19T23:03:25.538Z,101030.75
2023-05-19T23:06:28.591Z,101028.56
2023-05-19T23:09:31.107Z,101032.53
2023-05-19T23:12:34.139Z,101032.53
2023-05-19T23:15:36.707Z,101034.13
2023-05-19T23:18:39.326Z,101031.59
2023-05-19T23:21:41.993Z,101030.34
2023-05-19T23:24:44.702Z,101030.97
2023-05-19T23:27:47.350Z,101028.44
2023-05-19T23:30:53.778Z,101020.38
2023-05-19T23:33:56.437Z,101028.09
2023-05-19T23:36:59.397Z,101025.88
2023-05-19T23:40:01.852Z,101016.03
2023-05-19T23:43:04.468Z,101014.78
2023-05-19T23:46:07.191Z,101020.59
2023-05-19T23:49:09.714Z,101019.81
2023-05-19T23:52:13.924Z,101017.94
2023-05-19T23:55:16.699Z,101013.44
2023-05-19T23:58:19.444Z,101018.97
